Time;durP1;ratioP1;P1;durP2;ratioP2;P2;SDS_P1;SDS_P2;PMS_P1;PMS_P2;Temp;Humidity;BMP_temperature;BMP_pressure;BME280_temperature;BME280_humidity;BME280_pressure;Samples;Min_cycle;Max_cycle;Signal;HPM_P1;HPM_P2
2021/09/01 00:00:29;;;;;;;18.25;16.88;;;11.30;88.10;;;;;;4954691;29;20467;-70
2021/09/01 00:03:01;;;;;;;17.83;16.52;;;11.30;88.20;;;;;;4951082;29;20054;-72
2021/09/01 00:05:33;;;;;;;18.10;16.80;;;11.30;88.30;;;;;;4948170;29;20047;-72
2021/09/01 00:08:05;;;;;;;18.48;17.15;;;11.30;88.00;;;;;;4953366;29;20169;-71
2021/09/01 00:10:37;;;;;;;18.30;16.90;;;11.30;88.00;;;;;;4950801;29;20445;-71
2021/09/01 00:13:09;;;;;;;18.50;17.10;;;11.40;88.30;;;;;;4950106;29;20110;-70
2021/09/01 00:15:41;;;;;;;18.50;17.00;;;11.40;88.30;;;;;;4950402;29;20047;-70
2021/09/01 00:18:13;;;;;;;18.33;17.02;;;11.30;88.30;;;;;;4953422;29;20517;-72
2021/09/01 00:20:45;;;;;;;18.65;17.20;;;11.30;88.30;;;;;;4952506;29;20046;-71
2021/09/01 00:23:17;;;;;;;18.08;16.77;;;11.30;88.40;;;;;;4950099;29;20051;-73
2021/09/01 00:25:49;;;;;;;18.58;17.23;;;11.30;88.50;;;;;;4952448;29;20053;-72
2021/09/01 00:28:21;;;;;;;18.27;16.88;;;11.30;89.10;;;;;;4952556;29;20049;-71
2021/09/01 00:30:53;;;;;;;18.90;17.40;;;11.30;89.20;;;;;;4949205;29;20517;-71
2021/09/01 00:33:24;;;;;;;18.83;17.42;;;11.30;89.10;;;;;;4952525;29;20051;-72
2021/09/01 00:35:56;;;;;;;17.88;16.58;;;11.30;89.10;;;;;;4952178;29;20136;-72
2021/09/01 00:38:28;;;;;;;17.98;16.67;;;11.30;88.80;;;;;;4952247;29;20122;-72
2021/09/01 00:41:01;;;;;;;17.65;16.35;;;11.30;88.80;;;;;;4950997;29;20059;-70
2021/09/01 00:43:33;;;;;;;17.45;16.15;;;11.30;87.90;;;;;;4949768;29;20470;-73
2021/09/01 00:46:06;;;;;;;17.77;16.42;;;11.30;87.10;;;;;;4949133;29;20057;-73
2021/09/01 00:48:38;;;;;;;17.55;16.25;;;11.20;87.70;;;;;;4952736;29;20081;-72
2021/09/01 00:51:10;;;;;;;18.00;16.70;;;11.20;87.60;;;;;;4949975;29;20131;-70
2021/09/01 00:53:47;;;;;;;18.02;16.67;;;11.10;87.50;;;;;;4950538;29;20079;-72
2021/09/01 00:56:20;;;;;;;17.65;16.35;;;11.10;87.70;;;;;;4949720;29;20864;-72
2021/09/01 00:58:52;;;;;;;18.13;16.77;;;11.10;88.00;;;;;;4952091;29;20047;-72
2021/09/01 01:01:23;;;;;;;19.02;17.52;;;11.20;88.70;;;;;;4949570;29;20058;-73
2021/09/01 01:03:56;;;;;;;18.58;17.25;;;11.20;88.50;;;;;;4949414;29;20418;-72
2021/09/01 01:06:29;;;;;;;18.85;17.27;;;11.20;88.40;;;;;;4951116;29;20827;-71
2021/09/01 01:09:01;;;;;;;18.73;17.23;;;11.20;88.50;;;;;;4950314;29;20133;-73
2021/09/01 01:11:33;;;;;;;19.58;17.88;;;11.20;88.30;;;;;;4947197;29;20142;-73
2021/09/01 01:14:05;;;;;;;19.35;17.83;;;11.10;88.70;;;;;;4951705;29;20499;-72
2021/09/01 01:16:37;;;;;;;18.70;17.35;;;11.00;88.30;;;;;;4951533;29;20058;-72
2021/09/01 01:19:09;;;;;;;18.55;17.25;;;11.00;87.70;;;;;;4949547;29;20528;-72
2021/09/01 01:21:41;;;;;;;18.98;17.50;;;10.90;88.10;;;;;;4952730;29;20526;-72
2021/09/01 01:24:13;;;;;;;18.98;17.58;;;10.90;87.50;;;;;;4952222;29;20197;-72
2021/09/01 01:26:45;;;;;;;18.25;16.95;;;10.80;88.00;;;;;;4948047;29;20147;-72
2021/09/01 01:29:16;;;;;;;19.20;17.85;;;10.90;88.70;;;;;;4950094;29;20862;-72
2021/09/01 01:31:48;;;;;;;19.50;17.90;;;10.90;88.00;;;;;;4951604;29;20043;-73
2021/09/01 01:34:20;;;;;;;19.05;17.65;;;10.80;88.00;;;;;;4951463;29;20049;-72
2021/09/01 01:36:52;;;;;;;18.63;17.13;;;10.90;87.90;;;;;;4951838;29;20717;-72
2021/09/01 01:39:24;;;;;;;18.92;17.17;;;10.90;87.80;;;;;;4953708;29;20158;-72
2021/09/01 01:41:56;;;;;;;18.83;17.30;;;10.90;87.90;;;;;;4954857;29;20058;-73
2021/09/01 01:44:28;;;;;;;18.52;17.10;;;10.90;87.90;;;;;;4950290;29;20522;-72
2021/09/01 01:47:01;;;;;;;19.48;17.85;;;10.90;87.80;;;;;;4953934;29;20665;-72
2021/09/01 01:49:34;;;;;;;18.67;17.35;;;10.90;87.90;;;;;;4953654;29;20656;-72
2021/09/01 01:52:06;;;;;;;18.60;17.20;;;10.90;87.80;;;;;;4954848;29;20300;-72
2021/09/01 01:54:38;;;;;;;19.75;18.25;;;10.90;87.80;;;;;;4954113;29;20149;-72
2021/09/01 01:57:10;;;;;;;19.63;18.10;;;10.80;88.20;;;;;;4953422;29;20395;-71
2021/09/01 01:59:42;;;;;;;18.52;17.20;;;10.70;88.90;;;;;;4954788;29;20069;-72
2021/09/01 02:02:14;;;;;;;18.92;17.52;;;10.60;88.80;;;;;;4954053;29;20055;-73
2021/09/01 02:04:46;;;;;;;19.50;18.10;;;10.70;89.10;;;;;;4953672;29;20816;-73
2021/09/01 02:07:17;;;;;;;19.40;17.75;;;10.70;88.80;;;;;;4955491;29;20468;-73
2021/09/01 02:09:49;;;;;;;19.60;18.00;;;10.70;89.30;;;;;;4952662;29;20518;-72
2021/09/01 02:12:21;;;;;;;20.45;18.85;;;10.80;89.20;;;;;;4952937;29;20051;-72
2021/09/01 02:14:53;;;;;;;20.17;18.48;;;10.80;89.80;;;;;;4954600;29;20065;-72
2021/09/01 02:17:28;;;;;;;19.98;18.38;;;10.90;90.10;;;;;;4953868;29;20047;-72
2021/09/01 02:20:01;;;;;;;20.35;18.85;;;10.80;90.50;;;;;;4952495;29;20055;-72
2021/09/01 02:22:33;;;;;;;21.60;19.90;;;10.90;90.30;;;;;;4953029;29;20637;-72
2021/09/01 02:25:06;;;;;;;21.58;19.90;;;10.90;91.40;;;;;;4954380;29;20074;-72
2021/09/01 02:27:39;;;;;;;21.75;20.15;;;11.00;92.10;;;;;;4953456;29;20154;-71
2021/09/01 02:30:12;;;;;;;21.10;19.50;;;11.00;91.90;;;;;;4955147;29;20279;-72
2021/09/01 02:32:44;;;;;;;21.38;19.77;;;11.10;92.00;;;;;;4953637;29;20043;-71
2021/09/01 02:35:16;;;;;;;21.52;19.83;;;11.10;92.50;;;;;;4953170;29;20126;-72
2021/09/01 02:37:52;;;;;;;21.08;19.48;;;11.10;91.40;;;;;;4955051;29;20075;-73
2021/09/01 02:40:24;;;;;;;20.90;19.30;;;11.20;91.30;;;;;;4960264;29;20068;-72
2021/09/01 02:42:56;;;;;;;21.23;19.58;;;11.10;91.10;;;;;;4950357;29;20055;-72
2021/09/01 02:45:28;;;;;;;21.42;19.73;;;11.20;91.00;;;;;;4950538;29;20051;-71
2021/09/01 02:48:00;;;;;;;22.27;20.58;;;11.10;90.60;;;;;;4953437;29;20147;-72
2021/09/01 02:50:31;;;;;;;22.10;20.30;;;11.20;90.90;;;;;;4954296;29;20657;-72
2021/09/01 02:53:03;;;;;;;22.10;20.40;;;11.20;91.60;;;;;;4953846;29;20058;-73
2021/09/01 02:55:35;;;;;;;19.98;18.55;;;11.20;91.20;;;;;;4952647;29;20577;-72
2021/09/01 02:58:07;;;;;;;20.52;19.00;;;11.10;89.70;;;;;;4951711;29;20165;-72
2021/09/01 03:00:39;;;;;;;21.23;19.63;;;11.10;89.20;;;;;;4950971;29;20051;-72
2021/09/01 03:03:11;;;;;;;20.02;18.52;;;11.10;89.60;;;;;;4951617;29;20051;-72
2021/09/01 03:05:43;;;;;;;19.88;18.38;;;11.10;89.70;;;;;;4951091;29;20158;-72
2021/09/01 03:08:15;;;;;;;19.55;18.08;;;11.10;89.10;;;;;;4954649;29;20665;-72
2021/09/01 03:10:47;;;;;;;18.80;17.33;;;11.10;89.30;;;;;;4952353;29;20058;-73
2021/09/01 03:13:19;;;;;;;19.95;18.27;;;11.10;89.50;;;;;;4950485;29;20652;-73
2021/09/01 03:15:51;;;;;;;20.67;19.08;;;11.10;89.70;;;;;;4951524;29;20463;-72
2021/09/01 03:18:23;;;;;;;20.13;18.52;;;11.10;90.10;;;;;;4954814;29;20047;-72
2021/09/01 03:20:54;;;;;;;19.67;18.17;;;11.10;91.00;;;;;;4950473;29;20150;-71
2021/09/01 03:23:26;;;;;;;19.65;18.15;;;11.10;90.70;;;;;;4952794;29;20134;-72
2021/09/01 03:25:58;;;;;;;20.10;18.60;;;11.10;90.40;;;;;;4949794;29;20057;-72
2021/09/01 03:28:30;;;;;;;20.40;18.90;;;11.10;90.50;;;;;;4952224;29;20210;-72
2021/09/01 03:31:02;;;;;;;20.45;18.85;;;11.10;90.50;;;;;;4949340;29;20192;-73
2021/09/01 03:33:34;;;;;;;20.75;19.15;;;11.10;90.60;;;;;;4952813;29;20820;-73
2021/09/01 03:36:06;;;;;;;20.52;18.83;;;11.10;90.80;;;;;;4950491;29;20044;-72
2021/09/01 03:38:38;;;;;;;19.80;18.30;;;11.10;90.70;;;;;;4953679;29;20571;-72
2021/09/01 03:41:10;;;;;;;20.42;18.92;;;11.00;90.70;;;;;;4953569;29;20062;-70
2021/09/01 03:43:42;;;;;;;20.30;18.80;;;11.10;90.50;;;;;;4951053;29;20077;-72
2021/09/01 03:46:14;;;;;;;19.73;18.23;;;11.10;89.70;;;;;;4948931;29;20655;-72
2021/09/01 03:48:46;;;;;;;20.00;18.50;;;11.10;88.80;;;;;;4949972;29;20058;-73
2021/09/01 03:51:18;;;;;;;19.85;18.35;;;11.00;89.10;;;;;;4952881;29;20086;-72
2021/09/01 03:53:51;;;;;;;19.38;17.88;;;11.00;89.00;;;;;;4959366;29;20146;-73
2021/09/01 03:56:23;;;;;;;20.50;19.00;;;11.00;89.10;;;;;;4951533;29;20050;-72
2021/09/01 03:58:55;;;;;;;20.05;18.55;;;11.00;90.70;;;;;;4953785;29;20426;-72
2021/09/01 04:01:27;;;;;;;19.60;17.95;;;11.00;91.00;;;;;;4949939;29;20122;-73
2021/09/01 04:04:06;;;;;;;19.20;17.80;;;11.00;91.00;;;;;;4952363;29;20475;-72
2021/09/01 04:06:38;;;;;;;20.40;18.90;;;11.00;91.20;;;;;;4951853;29;20585;-72
2021/09/01 04:09:10;;;;;;;20.33;18.83;;;11.00;91.20;;;;;;4951040;29;20078;-72
2021/09/01 04:11:43;;;;;;;19.92;18.30;;;11.00;91.30;;;;;;4951398;29;20043;-71
2021/09/01 04:14:15;;;;;;;20.13;18.55;;;11.00;91.40;;;;;;4954299;29;20141;-72
2021/09/01 04:16:47;;;;;;;20.00;18.60;;;11.00;91.30;;;;;;4951103;29;20050;-73
2021/09/01 04:19:18;;;;;;;20.05;18.58;;;11.00;91.20;;;;;;4951524;29;20046;-72
2021/09/01 04:21:50;;;;;;;19.90;18.40;;;11.00;91.00;;;;;;4950387;29;20129;-72
2021/09/01 04:24:22;;;;;;;19.48;18.08;;;11.00;91.60;;;;;;4950952;29;20146;-71
2021/09/01 04:26:54;;;;;;;20.25;18.75;;;11.00;91.30;;;;;;4949028;29;20113;-72
2021/09/01 04:29:26;;;;;;;19.83;18.23;;;11.00;91.70;;;;;;4954289;29;20119;-73
2021/09/01 04:31:58;;;;;;;20.45;18.88;;;11.00;91.70;;;;;;4951217;29;20138;-72
2021/09/01 04:34:30;;;;;;;19.58;18.17;;;11.00;91.80;;;;;;4950858;29;20091;-73
2021/09/01 04:37:02;;;;;;;19.70;18.30;;;11.00;91.60;;;;;;4952737;29;20125;-73
2021/09/01 04:39:34;;;;;;;19.38;17.98;;;11.00;91.90;;;;;;4953196;29;20059;-73
2021/09/01 04:42:06;;;;;;;20.00;18.38;;;10.90;91.90;;;;;;4950854;29;20098;-72
2021/09/01 04:44:37;;;;;;;19.05;17.65;;;10.90;91.50;;;;;;4949536;29;20059;-73
2021/09/01 04:47:09;;;;;;;19.02;17.63;;;10.90;91.30;;;;;;4950608;29;20077;-73
2021/09/01 04:49:41;;;;;;;19.48;18.08;;;11.00;91.10;;;;;;4950162;29;20125;-72
2021/09/01 04:52:13;;;;;;;19.30;17.85;;;10.90;91.20;;;;;;4951063;29;20055;-72
2021/09/01 04:54:45;;;;;;;19.27;17.77;;;10.90;91.10;;;;;;4955246;29;20563;-72
2021/09/01 04:57:17;;;;;;;18.83;17.50;;;10.90;91.10;;;;;;4950909;29;20178;-73
2021/09/01 04:59:49;;;;;;;18.90;17.50;;;10.90;90.80;;;;;;4950358;29;20146;-71
2021/09/01 05:02:21;;;;;;;18.58;17.25;;;10.90;90.80;;;;;;4952972;29;20148;-71
2021/09/01 05:04:53;;;;;;;18.30;16.95;;;11.00;90.90;;;;;;4953458;29;20134;-74
2021/09/01 05:07:25;;;;;;;18.30;16.98;;;11.00;91.30;;;;;;4951168;29;20171;-72
2021/09/01 05:10:01;;;;;;;18.90;17.40;;;11.00;91.40;;;;;;4960041;29;20103;-72
2021/09/01 05:12:33;;;;;;;19.05;17.48;;;10.90;92.10;;;;;;4947180;29;20478;-71
2021/09/01 05:15:05;;;;;;;18.80;17.30;;;10.80;92.20;;;;;;4951047;29;20116;-71
2021/09/01 05:17:37;;;;;;;19.35;17.85;;;10.80;92.40;;;;;;4950071;29;20070;-71
2021/09/01 05:20:10;;;;;;;18.15;16.85;;;10.80;92.40;;;;;;4943473;29;20054;-70
2021/09/01 05:22:46;;;;;;;18.70;17.27;;;10.80;92.30;;;;;;4950218;29;20278;-71
2021/09/01 05:25:18;;;;;;;19.05;17.65;;;10.80;92.20;;;;;;4951009;29;20066;-70
2021/09/01 05:27:51;;;;;;;18.88;17.48;;;10.70;92.10;;;;;;4949679;29;20481;-71
2021/09/01 05:30:23;;;;;;;18.42;17.13;;;10.80;91.70;;;;;;4951853;29;20188;-71
2021/09/01 05:32:59;;;;;;;19.20;17.80;;;10.80;91.40;;;;;;4950864;29;20484;-70
2021/09/01 05:35:37;;;;;;;19.75;18.33;;;10.80;91.10;;;;;;4953310;29;20062;-70
2021/09/01 05:38:10;;;;;;;19.25;17.75;;;10.80;91.10;;;;;;4948815;29;20075;-71
2021/09/01 05:40:43;;;;;;;17.70;16.50;;;10.80;91.40;;;;;;4952017;29;20087;-71
2021/09/01 05:43:16;;;;;;;18.77;17.48;;;10.80;91.30;;;;;;4954283;29;20077;-71
2021/09/01 05:45:50;;;;;;;19.05;17.65;;;10.80;91.10;;;;;;4947811;29;21080;-71
2021/09/01 05:48:23;;;;;;;19.25;17.85;;;10.70;91.20;;;;;;4963259;29;20597;-71
2021/09/01 05:50:56;;;;;;;19.05;17.65;;;10.70;92.20;;;;;;4947206;29;20165;-71
2021/09/01 05:53:29;;;;;;;18.40;17.10;;;10.80;91.30;;;;;;4949637;29;20043;-71
2021/09/01 05:56:05;;;;;;;18.48;17.13;;;10.80;91.10;;;;;;4946974;29;20134;-71
2021/09/01 05:58:38;;;;;;;18.15;16.63;;;10.80;91.20;;;;;;4952041;29;20062;-70
2021/09/01 06:01:14;;;;;;;19.08;17.48;;;10.80;91.40;;;;;;4950920;29;20542;-69
2021/09/01 06:03:47;;;;;;;17.85;16.50;;;10.70;91.30;;;;;;4949971;29;20067;-73
2021/09/01 06:06:21;;;;;;;18.55;17.15;;;10.80;91.20;;;;;;4951176;29;20059;-71
2021/09/01 06:08:58;;;;;;;18.00;16.70;;;10.80;91.40;;;;;;4951663;29;20083;-71
2021/09/01 06:11:31;;;;;;;18.55;16.80;;;10.80;91.20;;;;;;4953182;29;20134;-72
2021/09/01 06:14:03;;;;;;;17.42;16.13;;;10.80;91.00;;;;;;4956603;29;20108;-71
2021/09/01 06:16:34;;;;;;;16.98;15.77;;;10.80;91.10;;;;;;4948602;29;20138;-71
2021/09/01 06:19:06;;;;;;;17.77;16.48;;;10.80;91.10;;;;;;4950242;29;20074;-72
2021/09/01 06:21:38;;;;;;;18.40;17.08;;;10.90;91.10;;;;;;4948532;29;20043;-71
2021/09/01 06:24:10;;;;;;;18.20;16.80;;;11.00;90.50;;;;;;4952492;29;20727;-71
2021/09/01 06:26:42;;;;;;;17.65;16.23;;;11.20;90.40;;;;;;4953430;29;20058;-70
2021/09/01 06:29:14;;;;;;;17.65;16.35;;;11.30;90.60;;;;;;4954117;29;20055;-71
2021/09/01 06:31:46;;;;;;;18.17;16.88;;;11.40;89.80;;;;;;4964480;29;20151;-72
2021/09/01 06:34:18;;;;;;;17.83;16.38;;;11.50;89.80;;;;;;4952037;29;20533;-72
2021/09/01 06:36:50;;;;;;;17.17;15.95;;;11.60;89.60;;;;;;4954138;29;20043;-71
2021/09/01 06:39:22;;;;;;;18.15;16.52;;;11.80;89.60;;;;;;4952642;29;20414;-72
2021/09/01 06:41:54;;;;;;;17.35;16.15;;;11.90;88.30;;;;;;4953309;29;21081;-71
2021/09/01 06:44:26;;;;;;;17.50;16.27;;;12.00;88.40;;;;;;4960818;29;20101;-71
2021/09/01 06:46:58;;;;;;;17.70;16.50;;;12.00;88.00;;;;;;4955364;29;20527;-71
2021/09/01 06:49:30;;;;;;;18.42;17.13;;;12.10;88.00;;;;;;4961028;29;20066;-70
2021/09/01 06:52:02;;;;;;;17.73;16.50;;;12.30;88.10;;;;;;4951460;29;20052;-72
2021/09/01 06:54:34;;;;;;;17.75;16.20;;;12.50;87.00;;;;;;4955594;29;20062;-72
2021/09/01 06:57:06;;;;;;;18.48;17.08;;;12.60;87.30;;;;;;4954471;29;20059;-71
2021/09/01 06:59:38;;;;;;;18.33;17.02;;;12.80;86.70;;;;;;4952347;29;20047;-71
2021/09/01 07:02:10;;;;;;;18.40;17.10;;;13.00;87.00;;;;;;4953351;29;20134;-71
2021/09/01 07:04:42;;;;;;;18.60;17.25;;;13.20;85.50;;;;;;4951867;29;20674;-71
2021/09/01 07:07:14;;;;;;;18.38;17.08;;;13.30;85.10;;;;;;4951708;29;20059;-71
2021/09/01 07:09:46;;;;;;;18.55;17.25;;;13.50;84.00;;;;;;4954243;29;20777;-72
2021/09/01 07:12:18;;;;;;;18.73;17.42;;;13.50;82.80;;;;;;4952090;29;20116;-72
2021/09/01 07:14:50;;;;;;;18.55;17.25;;;13.60;82.10;;;;;;4954135;29;20046;-71
2021/09/01 07:17:21;;;;;;;18.00;16.70;;;13.70;81.20;;;;;;4953148;29;20051;-70
2021/09/01 07:19:53;;;;;;;18.25;16.95;;;13.80;81.40;;;;;;4952292;29;20180;-71
2021/09/01 07:22:31;;;;;;;18.08;16.88;;;14.00;82.90;;;;;;4953976;29;20193;-72
2021/09/01 07:25:05;;;;;;;19.63;18.23;;;14.20;82.60;;;;;;4953687;29;20163;-72
2021/09/01 07:27:38;;;;;;;21.23;19.63;;;14.40;82.90;;;;;;4953174;29;20485;-71
2021/09/01 07:30:10;;;;;;;20.05;18.52;;;14.60;83.60;;;;;;4952901;29;20055;-71
2021/09/01 07:32:42;;;;;;;19.50;18.00;;;14.70;83.30;;;;;;4954219;29;20061;-71
2021/09/01 07:35:14;;;;;;;20.00;18.50;;;14.90;83.00;;;;;;4948124;29;20039;-71
2021/09/01 07:37:49;;;;;;;20.08;18.67;;;15.00;81.50;;;;;;4950754;29;20057;-72
2021/09/01 07:40:23;;;;;;;20.50;19.00;;;15.20;81.50;;;;;;4953516;29;20063;-71
2021/09/01 07:42:55;;;;;;;20.27;18.83;;;15.20;80.00;;;;;;4952767;29;20137;-71
2021/09/01 07:45:30;;;;;;;20.05;18.55;;;15.30;82.30;;;;;;4959976;29;20055;-71
2021/09/01 07:48:02;;;;;;;19.80;18.40;;;15.40;79.70;;;;;;4954496;29;20137;-72
2021/09/01 07:50:34;;;;;;;20.08;18.67;;;15.40;76.40;;;;;;4953566;29;20058;-71
2021/09/01 07:53:06;;;;;;;20.30;18.67;;;15.50;78.70;;;;;;4951342;29;20061;-71
2021/09/01 07:55:38;;;;;;;19.95;18.45;;;15.60;80.40;;;;;;4950647;29;20049;-70
2021/09/01 07:58:10;;;;;;;19.73;18.00;;;15.70;78.90;;;;;;4949746;29;20055;-71
2021/09/01 08:00:42;;;;;;;19.55;18.25;;;15.80;75.90;;;;;;4958897;29;20134;-70
2021/09/01 08:03:14;;;;;;;20.10;18.60;;;15.90;77.80;;;;;;4953515;29;20154;-70
2021/09/01 08:05:46;;;;;;;20.02;18.58;;;16.00;79.00;;;;;;4952175;29;20058;-70
2021/09/01 08:08:18;;;;;;;19.83;18.40;;;16.10;78.20;;;;;;4953035;29;20054;-72
2021/09/01 08:10:50;;;;;;;18.80;17.50;;;16.10;77.10;;;;;;4949387;29;21016;-72
2021/09/01 08:13:22;;;;;;;19.73;18.23;;;16.20;75.80;;;;;;4950705;29;20162;-70
2021/09/01 08:15:54;;;;;;;19.83;18.42;;;16.30;78.50;;;;;;4951749;29;20581;-72
2021/09/01 08:18:26;;;;;;;20.60;19.10;;;16.30;77.20;;;;;;4950093;29;20047;-72
2021/09/01 08:20:57;;;;;;;20.10;18.70;;;16.40;79.00;;;;;;4951848;29;20490;-71
2021/09/01 08:23:29;;;;;;;20.88;19.38;;;16.50;78.50;;;;;;4951581;29;20137;-71
2021/09/01 08:26:01;;;;;;;20.80;19.33;;;16.60;76.80;;;;;;4952937;29;20116;-72
2021/09/01 08:28:33;;;;;;;20.85;19.35;;;16.70;77.20;;;;;;4952395;29;20147;-72
2021/09/01 08:31:05;;;;;;;21.05;19.55;;;16.70;76.80;;;;;;4951221;29;20062;-70
2021/09/01 08:33:38;;;;;;;21.00;19.40;;;16.80;77.30;;;;;;4950281;29;20467;-71
2021/09/01 08:36:10;;;;;;;20.45;19.00;;;16.90;76.30;;;;;;4951795;29;20057;-72
2021/09/01 08:38:42;;;;;;;20.10;18.60;;;16.90;74.90;;;;;;4950006;29;20088;-72
2021/09/01 08:41:16;;;;;;;20.77;19.27;;;17.00;74.40;;;;;;4951839;29;20075;-71
2021/09/01 08:43:48;;;;;;;21.35;19.73;;;17.10;76.90;;;;;;4952045;29;20112;-74
2021/09/01 08:46:20;;;;;;;21.08;19.50;;;17.20;76.60;;;;;;4950510;29;20163;-71
2021/09/01 08:48:52;;;;;;;21.08;19.58;;;17.30;77.10;;;;;;4951589;29;20062;-72
2021/09/01 08:51:24;;;;;;;20.60;19.10;;;17.30;74.40;;;;;;4948138;29;20151;-71
2021/09/01 08:53:57;;;;;;;20.00;18.50;;;17.30;75.90;;;;;;4952371;29;20188;-71
2021/09/01 08:56:30;;;;;;;20.63;19.15;;;17.40;77.50;;;;;;4949203;29;20062;-72
2021/09/01 08:59:02;;;;;;;20.67;19.27;;;17.60;76.60;;;;;;4948760;29;20409;-73
2021/09/01 09:01:43;;;;;;;20.98;19.40;;;17.50;75.80;;;;;;4952523;29;20053;-72
2021/09/01 09:04:22;;;;;;;21.77;20.23;;;17.70;76.40;;;;;;4952172;29;20061;-72
2021/09/01 09:06:59;;;;;;;21.63;19.98;;;17.70;76.60;;;;;;4952274;29;20534;-71
2021/09/01 09:09:34;;;;;;;23.15;21.25;;;17.80;76.00;;;;;;4954302;29;20454;-73
2021/09/01 09:12:09;;;;;;;22.15;20.30;;;17.90;75.90;;;;;;4949524;29;20087;-72
2021/09/01 09:14:47;;;;;;;21.73;20.13;;;17.90;74.70;;;;;;4950426;29;20112;-72
2021/09/01 09:17:20;;;;;;;22.50;20.80;;;18.00;76.50;;;;;;4951708;29;20070;-71
2021/09/01 09:19:52;;;;;;;22.45;20.75;;;18.00;74.50;;;;;;4951234;29;20185;-71
2021/09/01 09:22:33;;;;;;;22.58;20.98;;;18.00;74.50;;;;;;4952836;29;20559;-73
2021/09/01 09:25:13;;;;;;;22.98;21.38;;;18.10;77.00;;;;;;4950953;29;20059;-71
2021/09/01 09:28:06;;;;;;;22.07;20.50;;;18.20;76.80;;;;;;4950085;29;20481;-71
2021/09/01 09:30:38;;;;;;;22.42;20.83;;;18.20;77.40;;;;;;4949479;29;20372;-71
2021/09/01 09:33:13;;;;;;;22.58;20.88;;;18.20;76.20;;;;;;4952083;29;20179;-71
2021/09/01 09:35:51;;;;;;;23.30;21.50;;;18.30;77.40;;;;;;4949904;29;20122;-71
2021/09/01 09:38:29;;;;;;;21.40;19.90;;;18.40;76.90;;;;;;4951186;29;20154;-72
2021/09/01 09:41:08;;;;;;;22.00;20.40;;;18.60;76.00;;;;;;4952121;29;20132;-73
2021/09/01 09:43:40;;;;;;;21.75;20.25;;;18.60;75.90;;;;;;4954385;29;20047;-71
2021/09/01 09:46:12;;;;;;;21.80;20.20;;;18.70;76.70;;;;;;4949251;29;20139;-71
2021/09/01 09:48:46;;;;;;;21.52;19.95;;;18.80;73.70;;;;;;4951496;29;20039;-71
2021/09/01 09:51:34;;;;;;;21.95;20.35;;;18.80;72.50;;;;;;4949688;29;20128;-72
2021/09/01 09:54:18;;;;;;;21.05;19.55;;;18.90;73.70;;;;;;4952185;29;20629;-71
2021/09/01 09:57:04;;;;;;;21.17;19.67;;;19.00;74.40;;;;;;4950522;29;21008;-72
2021/09/01 09:59:37;;;;;;;21.27;19.77;;;19.00;71.00;;;;;;4955500;29;20098;-72
2021/09/01 10:02:09;;;;;;;20.95;19.45;;;19.00;69.30;;;;;;4953194;29;20548;-72
2021/09/01 10:04:43;;;;;;;21.77;20.17;;;19.00;71.10;;;;;;4956708;29;20075;-71
2021/09/01 10:07:15;;;;;;;20.90;19.35;;;19.10;70.60;;;;;;4952467;29;20059;-72
2021/09/01 10:09:47;;;;;;;21.75;20.25;;;19.10;70.90;;;;;;4956698;29;20488;-72
2021/09/01 10:12:19;;;;;;;21.52;20.00;;;19.20;69.40;;;;;;4953291;29;20058;-72
2021/09/01 10:14:52;;;;;;;21.77;20.17;;;19.10;68.80;;;;;;4955360;29;20573;-71
2021/09/01 10:17:25;;;;;;;22.08;20.25;;;19.20;69.30;;;;;;4954799;29;20051;-72
2021/09/01 10:19:57;;;;;;;21.27;19.80;;;19.30;71.50;;;;;;4951890;29;20134;-72
2021/09/01 10:22:29;;;;;;;21.52;20.02;;;19.40;69.70;;;;;;4952349;29;20039;-71
2021/09/01 10:25:02;;;;;;;21.35;19.85;;;19.40;69.60;;;;;;4954488;29;20061;-72
2021/09/01 10:27:35;;;;;;;22.02;20.33;;;19.50;69.10;;;;;;4951628;29;20533;-72
2021/09/01 10:30:08;;;;;;;22.05;20.55;;;19.60;67.50;;;;;;4953141;29;20158;-70
2021/09/01 10:32:48;;;;;;;21.60;19.92;;;19.60;68.60;;;;;;4953841;29;20074;-72
2021/09/01 10:35:19;;;;;;;21.88;20.27;;;19.70;70.10;;;;;;4952596;29;20502;-72
2021/09/01 10:37:55;;;;;;;21.50;19.95;;;19.70;67.10;;;;;;4952237;29;20047;-71
2021/09/01 10:40:29;;;;;;;21.20;19.60;;;19.70;68.40;;;;;;4941004;29;20078;-71
2021/09/01 10:43:19;;;;;;;22.45;20.90;;;19.80;68.20;;;;;;4954209;29;20126;-73
2021/09/01 10:45:51;;;;;;;21.50;20.00;;;19.90;68.40;;;;;;4952033;29;20089;-72
2021/09/01 10:48:23;;;;;;;21.17;19.73;;;20.00;67.20;;;;;;4954133;29;20046;-72
2021/09/01 10:50:55;;;;;;;21.05;19.55;;;20.10;65.50;;;;;;4954020;29;20054;-73
2021/09/01 10:53:29;;;;;;;20.77;19.30;;;20.00;64.60;;;;;;4953514;29;20545;-73
2021/09/01 10:56:03;;;;;;;21.13;19.63;;;20.00;64.30;;;;;;4954060;29;20051;-73
2021/09/01 10:58:45;;;;;;;20.77;19.38;;;20.10;65.20;;;;;;4953395;29;20040;-72
2021/09/01 11:01:19;;;;;;;19.88;18.48;;;20.00;61.60;;;;;;4953980;29;20991;-71
2021/09/01 11:03:59;;;;;;;20.65;19.15;;;20.00;61.80;;;;;;4953237;29;20111;-71
2021/09/01 11:06:36;;;;;;;20.75;19.25;;;20.00;62.30;;;;;;4953768;29;20177;-72
2021/09/01 11:09:16;;;;;;;20.25;18.85;;;20.00;61.60;;;;;;4952737;29;20133;-71
2021/09/01 11:11:53;;;;;;;20.20;18.77;;;20.10;58.60;;;;;;4951680;29;20055;-71
2021/09/01 11:14:40;;;;;;;21.05;19.55;;;20.20;63.10;;;;;;4952311;29;20078;-73
2021/09/01 11:17:17;;;;;;;20.85;19.35;;;20.20;59.70;;;;;;4954261;29;20473;-72
2021/09/01 11:19:53;;;;;;;20.88;19.38;;;20.30;62.20;;;;;;4952769;29;20753;-71
2021/09/01 11:22:28;;;;;;;20.75;19.25;;;20.40;64.50;;;;;;4950200;29;20138;-72
2021/09/01 11:25:05;;;;;;;20.80;19.20;;;20.50;62.30;;;;;;4953900;29;20075;-72
2021/09/01 11:27:52;;;;;;;21.13;19.55;;;20.50;61.30;;;;;;4948739;29;20063;-73
2021/09/01 11:30:32;;;;;;;20.20;18.80;;;20.50;59.20;;;;;;4950589;29;20059;-71
2021/09/01 11:33:04;;;;;;;21.30;19.70;;;20.60;60.10;;;;;;4952876;29;20078;-70
2021/09/01 11:35:37;;;;;;;20.13;18.73;;;20.60;56.60;;;;;;4948489;29;20205;-71
2021/09/01 11:38:10;;;;;;;20.48;18.98;;;20.50;58.10;;;;;;4953063;29;20061;-70
2021/09/01 11:40:42;;;;;;;20.95;19.45;;;20.50;58.10;;;;;;4953770;29;20514;-71
2021/09/01 11:43:20;;;;;;;20.17;18.77;;;20.60;59.60;;;;;;4952471;29;20075;-72
2021/09/01 11:45:53;;;;;;;21.15;19.65;;;20.60;59.00;;;;;;4949036;29;20058;-71
2021/09/01 11:48:25;;;;;;;20.80;19.30;;;20.60;57.50;;;;;;4951923;29;20051;-70
2021/09/01 11:50:57;;;;;;;20.92;19.42;;;20.70;58.20;;;;;;4953674;29;20140;-72
2021/09/01 11:53:49;;;;;;;21.17;19.67;;;20.70;58.70;;;;;;4953741;29;20172;-71
2021/09/01 11:56:20;;;;;;;21.30;19.70;;;20.60;57.30;;;;;;4949075;29;20834;-70
2021/09/01 11:59:03;;;;;;;20.77;19.20;;;20.70;58.60;;;;;;4951501;29;20082;-69
2021/09/01 12:01:59;;;;;;;20.88;19.38;;;20.70;59.00;;;;;;4956680;29;20046;-69
2021/09/01 12:04:41;;;;;;;20.90;19.48;;;20.90;59.90;;;;;;4947968;29;20055;-71
2021/09/01 12:07:36;;;;;;;21.05;19.52;;;21.00;58.10;;;;;;4951291;29;20051;-69
2021/09/01 12:10:09;;;;;;;20.85;19.27;;;21.00;59.60;;;;;;4951691;29;20069;-69
2021/09/01 12:12:41;;;;;;;21.08;19.38;;;21.10;58.80;;;;;;4949370;29;20083;-70
2021/09/01 12:15:15;;;;;;;20.15;18.75;;;21.00;56.90;;;;;;4949480;29;20130;-68
2021/09/01 12:18:05;;;;;;;20.88;19.42;;;21.20;56.50;;;;;;4951161;29;20066;-70
2021/09/01 12:20:37;;;;;;;20.47;19.03;;;21.10;56.80;;;;;;4950296;29;20817;-69
2021/09/01 12:23:16;;;;;;;21.27;19.77;;;21.10;57.60;;;;;;4950477;29;20770;-70
2021/09/01 12:25:48;;;;;;;20.98;19.45;;;21.10;56.70;;;;;;4950762;29;20074;-70
2021/09/01 12:28:19;;;;;;;20.25;18.85;;;21.10;56.00;;;;;;4950805;29;20130;-70
2021/09/01 12:30:51;;;;;;;19.92;18.52;;;21.00;55.90;;;;;;4954011;29;20980;-70
2021/09/01 12:33:30;;;;;;;20.67;19.27;;;21.10;57.90;;;;;;4952883;29;20050;-69
2021/09/01 12:36:02;;;;;;;20.30;18.90;;;21.10;56.70;;;;;;4951546;29;20058;-70
2021/09/01 12:38:34;;;;;;;20.65;19.15;;;21.10;57.90;;;;;;4953250;29;20057;-69
2021/09/01 12:41:25;;;;;;;20.35;18.95;;;21.30;58.80;;;;;;4950978;29;20138;-70
2021/09/01 12:44:01;;;;;;;20.70;19.10;;;21.30;57.50;;;;;;4951080;29;20063;-70
2021/09/01 12:46:33;;;;;;;20.45;19.05;;;21.40;57.40;;;;;;4952379;29;20069;-70
2021/09/01 12:49:25;;;;;;;20.27;18.85;;;21.40;54.30;;;;;;4951787;29;20053;-70
2021/09/01 12:51:57;;;;;;;19.85;18.48;;;21.20;52.90;;;;;;4952395;29;20131;-70
2021/09/01 12:54:29;;;;;;;20.17;18.77;;;21.20;56.10;;;;;;4950091;29;20081;-70
2021/09/01 12:57:00;;;;;;;21.10;19.60;;;21.20;56.40;;;;;;4950460;29;20067;-68
2021/09/01 12:59:35;;;;;;;21.23;19.73;;;21.30;56.40;;;;;;4949865;29;20519;-71